sensor_id;sensor_type;location;lat;lon;timestamp;temperature;humidity
26982;DHT22;14533;50.848;4.380;2022-09-30T00:01:47;12.80;99.90
26982;DHT22;14533;50.848;4.380;2022-09-30T00:04:17;12.90;99.90
26982;DHT22;14533;50.848;4.380;2022-09-30T00:06:43;12.70;99.90
26982;DHT22;14533;50.848;4.380;2022-09-30T00:09:10;12.60;99.90
26982;DHT22;14533;50.848;4.380;2022-09-30T00:11:37;12.60;99.90
26982;DHT22;14533;50.848;4.380;2022-09-30T00:14:05;12.50;99.90
26982;DHT22;14533;50.848;4.380;2022-09-30T00:16:34;12.40;99.90
26982;DHT22;14533;50.848;4.380;2022-09-30T00:19:00;12.40;99.90
26982;DHT22;14533;50.848;4.380;2022-09-30T00:21:26;12.50;99.90
26982;DHT22;14533;50.848;4.380;2022-09-30T00:23:53;12.50;99.90
26982;DHT22;14533;50.848;4.380;2022-09-30T00:26:21;12.60;99.90
26982;DHT22;14533;50.848;4.380;2022-09-30T00:28:56;12.30;99.90
26982;DHT22;14533;50.848;4.380;2022-09-30T00:31:24;12.40;99.90
26982;DHT22;14533;50.848;4.380;2022-09-30T00:33:50;12.50;99.90
26982;DHT22;14533;50.848;4.380;2022-09-30T00:36:35;12.40;99.90
26982;DHT22;14533;50.848;4.380;2022-09-30T00:39:02;12.50;99.90
26982;DHT22;14533;50.848;4.380;2022-09-30T00:41:29;12.30;99.90
26982;DHT22;14533;50.848;4.380;2022-09-30T00:43:54;12.20;99.90
26982;DHT22;14533;50.848;4.380;2022-09-30T00:46:34;12.10;99.90
26982;DHT22;14533;50.848;4.380;2022-09-30T00:49:08;12.10;99.90
26982;DHT22;14533;50.848;4.380;2022-09-30T00:51:40;12.00;99.90
26982;DHT22;14533;50.848;4.380;2022-09-30T00:54:28;11.90;99.90
26982;DHT22;14533;50.848;4.380;2022-09-30T00:57:03;12.00;99.90
26982;DHT22;14533;50.848;4.380;2022-09-30T00:59:36;11.90;99.90
26982;DHT22;14533;50.848;4.380;2022-09-30T01:02:03;11.80;99.90
26982;DHT22;14533;50.848;4.380;2022-09-30T01:04:31;11.80;99.90
26982;DHT22;14533;50.848;4.380;2022-09-30T01:07:05;11.70;99.90
26982;DHT22;14533;50.848;4.380;2022-09-30T01:09:33;11.70;99.90
26982;DHT22;14533;50.848;4.380;2022-09-30T01:12:13;11.80;99.90
26982;DHT22;14533;50.848;4.380;2022-09-30T01:14:42;11.90;99.90
26982;DHT22;14533;50.848;4.380;2022-09-30T01:17:34;12.00;99.90
26982;DHT22;14533;50.848;4.380;2022-09-30T01:22:54;11.90;99.90
26982;DHT22;14533;50.848;4.380;2022-09-30T01:26:08;11.90;99.90
26982;DHT22;14533;50.848;4.380;2022-09-30T01:28:57;11.90;99.90
26982;DHT22;14533;50.848;4.380;2022-09-30T01:31:55;11.80;99.90
26982;DHT22;14533;50.848;4.380;2022-09-30T01:34:50;11.70;99.90
26982;DHT22;14533;50.848;4.380;2022-09-30T01:40:07;11.60;99.90
26982;DHT22;14533;50.848;4.380;2022-09-30T01:45:39;11.60;99.90
26982;DHT22;14533;50.848;4.380;2022-09-30T01:48:14;11.60;99.90
26982;DHT22;14533;50.848;4.380;2022-09-30T01:50:52;11.60;99.90
26982;DHT22;14533;50.848;4.380;2022-09-30T01:55:59;11.60;99.90
26982;DHT22;14533;50.848;4.380;2022-09-30T02:01:35;11.60;99.90
26982;DHT22;14533;50.848;4.380;2022-09-30T02:04:35;11.70;99.90
26982;DHT22;14533;50.848;4.380;2022-09-30T02:07:09;11.70;99.90
26982;DHT22;14533;50.848;4.380;2022-09-30T02:09:45;11.60;99.90
26982;DHT22;14533;50.848;4.380;2022-09-30T02:12:17;11.60;99.90
26982;DHT22;14533;50.848;4.380;2022-09-30T02:14:48;11.50;99.90
26982;DHT22;14533;50.848;4.380;2022-09-30T02:17:31;11.20;99.90
26982;DHT22;14533;50.848;4.380;2022-09-30T02:20:31;11.00;99.90
26982;DHT22;14533;50.848;4.380;2022-09-30T02:25:36;10.60;99.90
26982;DHT22;14533;50.848;4.380;2022-09-30T02:28:06;10.70;99.90
26982;DHT22;14533;50.848;4.380;2022-09-30T02:30:35;10.90;99.90
26982;DHT22;14533;50.848;4.380;2022-09-30T02:33:05;11.10;99.90
26982;DHT22;14533;50.848;4.380;2022-09-30T02:35:36;11.30;99.90
26982;DHT22;14533;50.848;4.380;2022-09-30T02:38:07;11.10;99.90
26982;DHT22;14533;50.848;4.380;2022-09-30T02:40:46;11.00;99.90
26982;DHT22;14533;50.848;4.380;2022-09-30T02:43:15;10.90;99.90
26982;DHT22;14533;50.848;4.380;2022-09-30T02:48:48;10.60;99.90
26982;DHT22;14533;50.848;4.380;2022-09-30T02:54:46;10.70;99.90
26982;DHT22;14533;50.848;4.380;2022-09-30T03:00:12;10.80;99.90
26982;DHT22;14533;50.848;4.380;2022-09-30T03:02:40;10.70;99.90
26982;DHT22;14533;50.848;4.380;2022-09-30T03:05:12;10.60;99.90
26982;DHT22;14533;50.848;4.380;2022-09-30T03:07:40;10.60;99.90
26982;DHT22;14533;50.848;4.380;2022-09-30T03:10:17;10.60;99.90
26982;DHT22;14533;50.848;4.380;2022-09-30T03:18:36;11.10;99.90
26982;DHT22;14533;50.848;4.380;2022-09-30T03:21:25;11.10;99.90
26982;DHT22;14533;50.848;4.380;2022-09-30T03:24:11;11.10;99.90
26982;DHT22;14533;50.848;4.380;2022-09-30T03:29:51;11.10;99.90
26982;DHT22;14533;50.848;4.380;2022-09-30T03:45:39;11.60;99.90
26982;DHT22;14533;50.848;4.380;2022-09-30T03:48:08;11.60;99.90
26982;DHT22;14533;50.848;4.380;2022-09-30T03:50:36;11.50;99.90
26982;DHT22;14533;50.848;4.380;2022-09-30T03:53:03;11.50;99.90
26982;DHT22;14533;50.848;4.380;2022-09-30T03:55:45;11.40;99.90
26982;DHT22;14533;50.848;4.380;2022-09-30T03:58:12;11.40;99.90
26982;DHT22;14533;50.848;4.380;2022-09-30T04:00:40;11.40;99.90
26982;DHT22;14533;50.848;4.380;2022-09-30T04:03:11;11.10;99.90
26982;DHT22;14533;50.848;4.380;2022-09-30T04:05:36;11.10;99.90
26982;DHT22;14533;50.848;4.380;2022-09-30T04:08:02;11.10;99.90
26982;DHT22;14533;50.848;4.380;2022-09-30T04:10:28;11.10;99.90
26982;DHT22;14533;50.848;4.380;2022-09-30T04:12:53;10.90;99.90
26982;DHT22;14533;50.848;4.380;2022-09-30T04:15:19;10.70;99.90
26982;DHT22;14533;50.848;4.380;2022-09-30T04:17:45;10.60;99.90
26982;DHT22;14533;50.848;4.380;2022-09-30T04:20:12;10.50;99.90
26982;DHT22;14533;50.848;4.380;2022-09-30T04:22:39;10.60;99.90
26982;DHT22;14533;50.848;4.380;2022-09-30T04:25:05;10.70;99.90
26982;DHT22;14533;50.848;4.380;2022-09-30T04:27:30;10.70;99.90
26982;DHT22;14533;50.848;4.380;2022-09-30T04:29:56;10.50;99.90
26982;DHT22;14533;50.848;4.380;2022-09-30T04:32:22;10.30;99.90
26982;DHT22;14533;50.848;4.380;2022-09-30T04:34:47;10.40;99.90
26982;DHT22;14533;50.848;4.380;2022-09-30T04:37:13;10.60;99.90
26982;DHT22;14533;50.848;4.380;2022-09-30T04:39:39;10.50;99.90
26982;DHT22;14533;50.848;4.380;2022-09-30T04:42:05;10.80;99.90
26982;DHT22;14533;50.848;4.380;2022-09-30T04:44:31;11.00;99.90
26982;DHT22;14533;50.848;4.380;2022-09-30T04:46:57;11.00;99.90
26982;DHT22;14533;50.848;4.380;2022-09-30T04:49:22;11.10;99.90
26982;DHT22;14533;50.848;4.380;2022-09-30T04:51:49;11.00;99.90
26982;DHT22;14533;50.848;4.380;2022-09-30T04:54:15;10.90;99.90
26982;DHT22;14533;50.848;4.380;2022-09-30T04:56:41;10.90;99.90
26982;DHT22;14533;50.848;4.380;2022-09-30T04:59:07;10.90;99.90
26982;DHT22;14533;50.848;4.380;2022-09-30T05:01:33;10.90;99.90
26982;DHT22;14533;50.848;4.380;2022-09-30T05:03:59;11.00;99.90
26982;DHT22;14533;50.848;4.380;2022-09-30T05:06:25;10.70;99.90
26982;DHT22;14533;50.848;4.380;2022-09-30T05:08:50;10.70;99.90
26982;DHT22;14533;50.848;4.380;2022-09-30T05:11:19;10.70;99.90
26982;DHT22;14533;50.848;4.380;2022-09-30T05:13:46;10.60;99.90
26982;DHT22;14533;50.848;4.380;2022-09-30T05:16:13;10.50;99.90
26982;DHT22;14533;50.848;4.380;2022-09-30T05:18:39;10.50;99.90
26982;DHT22;14533;50.848;4.380;2022-09-30T05:21:09;10.60;99.90
26982;DHT22;14533;50.848;4.380;2022-09-30T05:23:34;10.80;99.90
26982;DHT22;14533;50.848;4.380;2022-09-30T05:26:01;10.80;99.90
26982;DHT22;14533;50.848;4.380;2022-09-30T05:28:26;10.90;99.90
26982;DHT22;14533;50.848;4.380;2022-09-30T05:30:56;10.90;99.90
26982;DHT22;14533;50.848;4.380;2022-09-30T05:33:24;10.70;99.90
26982;DHT22;14533;50.848;4.380;2022-09-30T05:35:50;10.60;99.90
26982;DHT22;14533;50.848;4.380;2022-09-30T05:38:17;10.70;99.90
26982;DHT22;14533;50.848;4.380;2022-09-30T05:40:43;10.80;99.90
26982;DHT22;14533;50.848;4.380;2022-09-30T05:43:09;10.70;99.90
26982;DHT22;14533;50.848;4.380;2022-09-30T05:45:34;11.00;99.90
26982;DHT22;14533;50.848;4.380;2022-09-30T05:48:01;10.90;99.90
26982;DHT22;14533;50.848;4.380;2022-09-30T05:50:27;10.70;99.90
26982;DHT22;14533;50.848;4.380;2022-09-30T05:52:53;10.70;99.90
26982;DHT22;14533;50.848;4.380;2022-09-30T05:55:19;10.80;99.90
26982;DHT22;14533;50.848;4.380;2022-09-30T05:57:48;10.70;99.90
26982;DHT22;14533;50.848;4.380;2022-09-30T06:00:14;10.70;99.90
26982;DHT22;14533;50.848;4.380;2022-09-30T06:02:41;10.70;99.90
26982;DHT22;14533;50.848;4.380;2022-09-30T06:05:09;10.60;99.90
26982;DHT22;14533;50.848;4.380;2022-09-30T06:07:36;10.60;99.90
26982;DHT22;14533;50.848;4.380;2022-09-30T06:10:05;10.60;99.90
26982;DHT22;14533;50.848;4.380;2022-09-30T06:12:33;10.70;99.90
26982;DHT22;14533;50.848;4.380;2022-09-30T06:14:58;10.90;99.90
26982;DHT22;14533;50.848;4.380;2022-09-30T06:17:24;11.10;99.90
26982;DHT22;14533;50.848;4.380;2022-09-30T06:19:49;11.20;99.90
26982;DHT22;14533;50.848;4.380;2022-09-30T06:22:18;11.00;99.90
26982;DHT22;14533;50.848;4.380;2022-09-30T06:24:44;10.60;99.90
26982;DHT22;14533;50.848;4.380;2022-09-30T06:27:10;10.60;99.90
26982;DHT22;14533;50.848;4.380;2022-09-30T06:29:37;10.50;99.90
26982;DHT22;14533;50.848;4.380;2022-09-30T06:32:03;10.60;99.90
26982;DHT22;14533;50.848;4.380;2022-09-30T06:34:28;10.60;99.90
26982;DHT22;14533;50.848;4.380;2022-09-30T06:36:54;10.70;99.90
26982;DHT22;14533;50.848;4.380;2022-09-30T06:39:20;10.70;99.90
26982;DHT22;14533;50.848;4.380;2022-09-30T06:41:45;10.70;99.90
26982;DHT22;14533;50.848;4.380;2022-09-30T06:44:12;10.70;99.90
26982;DHT22;14533;50.848;4.380;2022-09-30T06:46:37;10.80;99.90
26982;DHT22;14533;50.848;4.380;2022-09-30T06:49:03;10.80;99.90
26982;DHT22;14533;50.848;4.380;2022-09-30T06:51:30;10.80;99.90
26982;DHT22;14533;50.848;4.380;2022-09-30T06:53:58;10.70;99.90
26982;DHT22;14533;50.848;4.380;2022-09-30T06:56:24;10.90;99.90
26982;DHT22;14533;50.848;4.380;2022-09-30T06:58:50;10.90;99.90
26982;DHT22;14533;50.848;4.380;2022-09-30T07:01:16;10.80;99.90
26982;DHT22;14533;50.848;4.380;2022-09-30T07:03:44;10.90;99.90
26982;DHT22;14533;50.848;4.380;2022-09-30T07:06:12;11.10;99.90
26982;DHT22;14533;50.848;4.380;2022-09-30T07:08:38;11.00;99.90
26982;DHT22;14533;50.848;4.380;2022-09-30T07:11:10;10.90;99.90
26982;DHT22;14533;50.848;4.380;2022-09-30T07:13:40;10.80;99.90
26982;DHT22;14533;50.848;4.380;2022-09-30T07:16:08;10.90;99.90
26982;DHT22;14533;50.848;4.380;2022-09-30T07:18:37;10.80;99.90
26982;DHT22;14533;50.848;4.380;2022-09-30T07:21:04;10.60;99.90
26982;DHT22;14533;50.848;4.380;2022-09-30T07:23:31;10.70;99.90
26982;DHT22;14533;50.848;4.380;2022-09-30T07:25:59;10.90;99.90
26982;DHT22;14533;50.848;4.380;2022-09-30T07:28:27;10.80;99.90
26982;DHT22;14533;50.848;4.380;2022-09-30T07:30:58;10.90;99.90
26982;DHT22;14533;50.848;4.380;2022-09-30T07:33:25;11.00;99.90
26982;DHT22;14533;50.848;4.380;2022-09-30T07:35:55;11.20;99.90
26982;DHT22;14533;50.848;4.380;2022-09-30T07:38:23;11.20;99.90
26982;DHT22;14533;50.848;4.380;2022-09-30T07:41:11;11.30;99.90
26982;DHT22;14533;50.848;4.380;2022-09-30T07:43:37;11.60;99.90
26982;DHT22;14533;50.848;4.380;2022-09-30T07:46:11;11.80;99.90
26982;DHT22;14533;50.848;4.380;2022-09-30T07:48:39;11.80;99.90
26982;DHT22;14533;50.848;4.380;2022-09-30T07:53:43;11.90;99.90
26982;DHT22;14533;50.848;4.380;2022-09-30T07:56:09;12.00;99.90
26982;DHT22;14533;50.848;4.380;2022-09-30T07:58:37;12.00;99.90
26982;DHT22;14533;50.848;4.380;2022-09-30T08:01:04;11.80;99.90
26982;DHT22;14533;50.848;4.380;2022-09-30T08:03:38;11.70;99.90
26982;DHT22;14533;50.848;4.380;2022-09-30T08:06:10;11.70;99.90
26982;DHT22;14533;50.848;4.380;2022-09-30T08:08:36;11.80;99.90
26982;DHT22;14533;50.848;4.380;2022-09-30T08:11:03;11.90;99.90
26982;DHT22;14533;50.848;4.380;2022-09-30T08:13:29;12.00;99.90
26982;DHT22;14533;50.848;4.380;2022-09-30T08:15:55;12.10;99.90
26982;DHT22;14533;50.848;4.380;2022-09-30T08:18:21;12.20;99.90
26982;DHT22;14533;50.848;4.380;2022-09-30T08:20:48;12.30;99.90
26982;DHT22;14533;50.848;4.380;2022-09-30T08:23:14;12.40;99.90
26982;DHT22;14533;50.848;4.380;2022-09-30T08:25:40;12.60;99.90
26982;DHT22;14533;50.848;4.380;2022-09-30T08:28:05;12.50;99.90
26982;DHT22;14533;50.848;4.380;2022-09-30T08:30:36;12.70;99.90
26982;DHT22;14533;50.848;4.380;2022-09-30T08:33:03;12.70;99.90
26982;DHT22;14533;50.848;4.380;2022-09-30T08:35:29;12.70;99.90
26982;DHT22;14533;50.848;4.380;2022-09-30T08:37:55;12.80;99.90
26982;DHT22;14533;50.848;4.380;2022-09-30T08:40:24;13.00;99.90
26982;DHT22;14533;50.848;4.380;2022-09-30T08:46:00;13.10;99.90
26982;DHT22;14533;50.848;4.380;2022-09-30T08:51:42;13.20;99.90
26982;DHT22;14533;50.848;4.380;2022-09-30T08:54:13;13.20;99.90
26982;DHT22;14533;50.848;4.380;2022-09-30T08:56:44;13.20;99.90
26982;DHT22;14533;50.848;4.380;2022-09-30T08:59:42;13.30;99.90
26982;DHT22;14533;50.848;4.380;2022-09-30T09:04:47;13.60;99.90
26982;DHT22;14533;50.848;4.380;2022-09-30T09:07:21;13.70;99.90
26982;DHT22;14533;50.848;4.380;2022-09-30T09:12:58;13.80;99.90
26982;DHT22;14533;50.848;4.380;2022-09-30T09:21:02;14.40;99.90
26982;DHT22;14533;50.848;4.380;2022-09-30T09:23:34;14.40;99.90
26982;DHT22;14533;50.848;4.380;2022-09-30T09:25:59;14.30;99.90
26982;DHT22;14533;50.848;4.380;2022-09-30T09:31:03;14.20;99.90
26982;DHT22;14533;50.848;4.380;2022-09-30T09:33:32;14.70;99.90
26982;DHT22;14533;50.848;4.380;2022-09-30T09:39:24;16.00;99.90
26982;DHT22;14533;50.848;4.380;2022-09-30T09:44:59;16.60;99.90
26982;DHT22;14533;50.848;4.380;2022-09-30T09:47:26;16.80;99.90
26982;DHT22;14533;50.848;4.380;2022-09-30T09:49:54;16.90;99.90
26982;DHT22;14533;50.848;4.380;2022-09-30T09:55:01;17.30;99.90
26982;DHT22;14533;50.848;4.380;2022-09-30T09:57:28;18.00;99.90
26982;DHT22;14533;50.848;4.380;2022-09-30T10:00:07;18.60;99.90
26982;DHT22;14533;50.848;4.380;2022-09-30T10:02:58;19.00;99.90
26982;DHT22;14533;50.848;4.380;2022-09-30T10:05:25;18.60;99.90
26982;DHT22;14533;50.848;4.380;2022-09-30T10:08:08;18.20;99.90
26982;DHT22;14533;50.848;4.380;2022-09-30T10:10:43;18.20;99.90
26982;DHT22;14533;50.848;4.380;2022-09-30T10:16:34;18.50;99.90
26982;DHT22;14533;50.848;4.380;2022-09-30T10:19:01;18.30;99.90
26982;DHT22;14533;50.848;4.380;2022-09-30T10:21:29;18.50;99.90
26982;DHT22;14533;50.848;4.380;2022-09-30T10:23:55;18.80;99.90
26982;DHT22;14533;50.848;4.380;2022-09-30T10:26:23;18.90;99.90
26982;DHT22;14533;50.848;4.380;2022-09-30T10:28:58;19.10;99.90
26982;DHT22;14533;50.848;4.380;2022-09-30T10:31:26;19.60;99.90
26982;DHT22;14533;50.848;4.380;2022-09-30T10:36:35;19.90;99.90
26982;DHT22;14533;50.848;4.380;2022-09-30T10:39:26;19.80;99.90
26982;DHT22;14533;50.848;4.380;2022-09-30T10:44:54;18.90;99.90
26982;DHT22;14533;50.848;4.380;2022-09-30T10:47:27;18.70;99.90
26982;DHT22;14533;50.848;4.380;2022-09-30T10:52:31;19.00;99.90
26982;DHT22;14533;50.848;4.380;2022-09-30T10:55:00;19.50;99.90
26982;DHT22;14533;50.848;4.380;2022-09-30T10:57:35;19.40;99.90
26982;DHT22;14533;50.848;4.380;2022-09-30T11:00:06;19.30;99.90
26982;DHT22;14533;50.848;4.380;2022-09-30T11:02:43;19.40;99.90
26982;DHT22;14533;50.848;4.380;2022-09-30T11:05:29;19.30;99.90
26982;DHT22;14533;50.848;4.380;2022-09-30T11:11:28;19.50;99.90
26982;DHT22;14533;50.848;4.380;2022-09-30T11:14:15;19.80;99.90
26982;DHT22;14533;50.848;4.380;2022-09-30T11:24:51;20.20;99.90
26982;DHT22;14533;50.848;4.380;2022-09-30T11:41:02;20.50;98.30
26982;DHT22;14533;50.848;4.380;2022-09-30T11:46:36;20.80;96.30
26982;DHT22;14533;50.848;4.380;2022-09-30T11:49:21;20.40;97.10
26982;DHT22;14533;50.848;4.380;2022-09-30T11:58:03;21.00;97.90
26982;DHT22;14533;50.848;4.380;2022-09-30T12:00:31;20.50;97.40
26982;DHT22;14533;50.848;4.380;2022-09-30T12:03:05;20.00;98.50
26982;DHT22;14533;50.848;4.380;2022-09-30T12:05:38;19.70;99.00
26982;DHT22;14533;50.848;4.380;2022-09-30T12:08:24;19.50;99.40
26982;DHT22;14533;50.848;4.380;2022-09-30T12:11:03;19.50;99.90
26982;DHT22;14533;50.848;4.380;2022-09-30T12:13:46;19.60;99.90
26982;DHT22;14533;50.848;4.380;2022-09-30T12:16:18;19.60;99.90
26982;DHT22;14533;50.848;4.380;2022-09-30T12:19:24;19.10;99.90
26982;DHT22;14533;50.848;4.380;2022-09-30T12:21:56;18.60;99.90
26982;DHT22;14533;50.848;4.380;2022-09-30T12:24:34;18.60;99.90
26982;DHT22;14533;50.848;4.380;2022-09-30T12:30:13;19.00;99.90
26982;DHT22;14533;50.848;4.380;2022-09-30T12:38:45;18.90;99.90
26982;DHT22;14533;50.848;4.380;2022-09-30T12:41:53;18.80;99.90
26982;DHT22;14533;50.848;4.380;2022-09-30T12:50:03;18.40;99.90
26982;DHT22;14533;50.848;4.380;2022-09-30T12:52:32;18.90;99.90
26982;DHT22;14533;50.848;4.380;2022-09-30T12:55:05;19.30;99.90
26982;DHT22;14533;50.848;4.380;2022-09-30T12:57:37;19.30;99.90
26982;DHT22;14533;50.848;4.380;2022-09-30T13:00:23;19.60;99.90
26982;DHT22;14533;50.848;4.380;2022-09-30T13:03:36;19.40;99.90
26982;DHT22;14533;50.848;4.380;2022-09-30T13:05:52;19.40;99.90
26982;DHT22;14533;50.848;4.380;2022-09-30T13:10:45;20.00;99.90
26982;DHT22;14533;50.848;4.380;2022-09-30T13:15:39;20.00;99.70
26982;DHT22;14533;50.848;4.380;2022-09-30T13:23:56;19.20;99.90
26982;DHT22;14533;50.848;4.380;2022-09-30T13:31:31;20.00;99.00
26982;DHT22;14533;50.848;4.380;2022-09-30T13:36:55;20.50;98.30
26982;DHT22;14533;50.848;4.380;2022-09-30T13:45:05;19.30;99.90
26982;DHT22;14533;50.848;4.380;2022-09-30T13:47:42;19.20;99.90
26982;DHT22;14533;50.848;4.380;2022-09-30T13:52:55;19.10;99.90
26982;DHT22;14533;50.848;4.380;2022-09-30T13:55:37;19.40;99.90
26982;DHT22;14533;50.848;4.380;2022-09-30T14:20:05;20.10;98.70
26982;DHT22;14533;50.848;4.380;2022-09-30T14:22:36;20.10;99.10
26982;DHT22;14533;50.848;4.380;2022-09-30T14:25:03;20.30;98.80
26982;DHT22;14533;50.848;4.380;2022-09-30T14:27:48;20.60;98.60
26982;DHT22;14533;50.848;4.380;2022-09-30T14:30:25;21.30;97.60
26982;DHT22;14533;50.848;4.380;2022-09-30T14:32:56;21.70;96.30
26982;DHT22;14533;50.848;4.380;2022-09-30T14:35:32;21.70;95.40
26982;DHT22;14533;50.848;4.380;2022-09-30T14:38:01;21.00;95.60
26982;DHT22;14533;50.848;4.380;2022-09-30T14:40:33;20.50;96.70
26982;DHT22;14533;50.848;4.380;2022-09-30T14:43:03;21.10;96.70
26982;DHT22;14533;50.848;4.380;2022-09-30T14:45:37;21.40;95.80
26982;DHT22;14533;50.848;4.380;2022-09-30T14:48:27;21.70;95.00
26982;DHT22;14533;50.848;4.380;2022-09-30T14:51:09;21.50;95.40
26982;DHT22;14533;50.848;4.380;2022-09-30T14:53:40;20.80;95.70
26982;DHT22;14533;50.848;4.380;2022-09-30T14:56:21;20.50;96.30
26982;DHT22;14533;50.848;4.380;2022-09-30T14:58:49;20.70;95.10
26982;DHT22;14533;50.848;4.380;2022-09-30T15:01:18;20.20;96.00
26982;DHT22;14533;50.848;4.380;2022-09-30T15:03:53;20.10;96.10
26982;DHT22;14533;50.848;4.380;2022-09-30T15:06:32;20.10;96.20
26982;DHT22;14533;50.848;4.380;2022-09-30T15:09:13;20.20;96.50
26982;DHT22;14533;50.848;4.380;2022-09-30T15:11:40;20.00;97.30
26982;DHT22;14533;50.848;4.380;2022-09-30T15:14:17;20.00;97.50
26982;DHT22;14533;50.848;4.380;2022-09-30T15:16:52;20.70;97.50
26982;DHT22;14533;50.848;4.380;2022-09-30T15:21:46;19.80;97.30
26982;DHT22;14533;50.848;4.380;2022-09-30T15:24:14;19.40;98.00
26982;DHT22;14533;50.848;4.380;2022-09-30T15:26:42;18.90;98.70
26982;DHT22;14533;50.848;4.380;2022-09-30T15:29:17;18.70;99.40
26982;DHT22;14533;50.848;4.380;2022-09-30T15:31:46;18.80;99.30
26982;DHT22;14533;50.848;4.380;2022-09-30T15:34:15;18.90;98.90
26982;DHT22;14533;50.848;4.380;2022-09-30T15:36:42;18.90;99.30
26982;DHT22;14533;50.848;4.380;2022-09-30T15:39:23;19.20;98.40
26982;DHT22;14533;50.848;4.380;2022-09-30T15:42:20;19.30;98.40
26982;DHT22;14533;50.848;4.380;2022-09-30T15:44:52;19.40;98.30
26982;DHT22;14533;50.848;4.380;2022-09-30T15:47:17;19.40;98.40
26982;DHT22;14533;50.848;4.380;2022-09-30T15:49:47;19.30;98.80
26982;DHT22;14533;50.848;4.380;2022-09-30T15:52:30;19.60;98.60
26982;DHT22;14533;50.848;4.380;2022-09-30T15:55:03;19.50;98.80
26982;DHT22;14533;50.848;4.380;2022-09-30T15:57:48;18.80;99.90
26982;DHT22;14533;50.848;4.380;2022-09-30T16:00:38;18.50;99.90
26982;DHT22;14533;50.848;4.380;2022-09-30T16:03:23;18.20;99.90
26982;DHT22;14533;50.848;4.380;2022-09-30T16:05:49;18.30;99.90
26982;DHT22;14533;50.848;4.380;2022-09-30T16:08:25;18.30;99.90
26982;DHT22;14533;50.848;4.380;2022-09-30T16:10:54;18.40;99.90
26982;DHT22;14533;50.848;4.380;2022-09-30T16:13:24;18.00;99.90
26982;DHT22;14533;50.848;4.380;2022-09-30T16:15:55;17.70;99.90
26982;DHT22;14533;50.848;4.380;2022-09-30T16:18:25;17.60;99.90
26982;DHT22;14533;50.848;4.380;2022-09-30T16:21:00;17.60;99.90
26982;DHT22;14533;50.848;4.380;2022-09-30T16:23:39;17.20;99.90
26982;DHT22;14533;50.848;4.380;2022-09-30T16:28:40;17.30;99.90
26982;DHT22;14533;50.848;4.380;2022-09-30T16:31:08;17.40;99.90
26982;DHT22;14533;50.848;4.380;2022-09-30T16:33:39;17.40;99.90
26982;DHT22;14533;50.848;4.380;2022-09-30T16:36:07;17.40;99.90
26982;DHT22;14533;50.848;4.380;2022-09-30T16:38:32;17.10;99.90
26982;DHT22;14533;50.848;4.380;2022-09-30T16:40:58;17.00;99.90
26982;DHT22;14533;50.848;4.380;2022-09-30T16:43:25;17.00;99.90
26982;DHT22;14533;50.848;4.380;2022-09-30T16:45:51;17.00;99.90
26982;DHT22;14533;50.848;4.380;2022-09-30T16:48:17;16.90;99.90
26982;DHT22;14533;50.848;4.380;2022-09-30T16:51:11;16.90;99.90
26982;DHT22;14533;50.848;4.380;2022-09-30T16:53:38;16.60;99.90
26982;DHT22;14533;50.848;4.380;2022-09-30T16:56:03;16.60;99.90
26982;DHT22;14533;50.848;4.380;2022-09-30T16:58:29;16.50;99.90
26982;DHT22;14533;50.848;4.380;2022-09-30T17:00:56;16.70;99.90
26982;DHT22;14533;50.848;4.380;2022-09-30T17:03:25;16.70;99.90
26982;DHT22;14533;50.848;4.380;2022-09-30T17:05:51;16.80;99.90
26982;DHT22;14533;50.848;4.380;2022-09-30T17:08:20;16.60;99.90
26982;DHT22;14533;50.848;4.380;2022-09-30T17:10:47;16.30;99.90
26982;DHT22;14533;50.848;4.380;2022-09-30T17:13:15;16.40;99.90
26982;DHT22;14533;50.848;4.380;2022-09-30T17:15:42;16.50;99.90
26982;DHT22;14533;50.848;4.380;2022-09-30T17:18:09;16.40;99.90
26982;DHT22;14533;50.848;4.380;2022-09-30T17:20:36;16.30;99.90
26982;DHT22;14533;50.848;4.380;2022-09-30T17:23:02;16.20;99.90
26982;DHT22;14533;50.848;4.380;2022-09-30T17:25:28;16.20;99.90
26982;DHT22;14533;50.848;4.380;2022-09-30T17:27:53;16.10;99.90
26982;DHT22;14533;50.848;4.380;2022-09-30T17:30:19;16.00;99.90
26982;DHT22;14533;50.848;4.380;2022-09-30T17:32:46;16.00;99.90
26982;DHT22;14533;50.848;4.380;2022-09-30T17:35:12;16.00;99.90
26982;DHT22;14533;50.848;4.380;2022-09-30T17:37:38;15.90;99.90
26982;DHT22;14533;50.848;4.380;2022-09-30T17:40:06;15.80;99.90
26982;DHT22;14533;50.848;4.380;2022-09-30T17:42:52;15.90;99.90
26982;DHT22;14533;50.848;4.380;2022-09-30T17:45:41;16.00;99.90
26982;DHT22;14533;50.848;4.380;2022-09-30T17:48:09;16.00;99.90
26982;DHT22;14533;50.848;4.380;2022-09-30T17:50:37;15.90;99.90
26982;DHT22;14533;50.848;4.380;2022-09-30T17:53:03;15.80;99.90
26982;DHT22;14533;50.848;4.380;2022-09-30T17:55:30;16.00;99.90
26982;DHT22;14533;50.848;4.380;2022-09-30T17:57:58;15.90;99.90
26982;DHT22;14533;50.848;4.380;2022-09-30T18:00:26;16.00;99.90
26982;DHT22;14533;50.848;4.380;2022-09-30T18:02:53;15.80;99.90
26982;DHT22;14533;50.848;4.380;2022-09-30T18:05:19;15.70;99.90
26982;DHT22;14533;50.848;4.380;2022-09-30T18:07:47;15.60;99.90
26982;DHT22;14533;50.848;4.380;2022-09-30T18:10:12;15.60;99.90
26982;DHT22;14533;50.848;4.380;2022-09-30T18:12:38;15.60;99.90
26982;DHT22;14533;50.848;4.380;2022-09-30T18:15:05;15.70;99.90
26982;DHT22;14533;50.848;4.380;2022-09-30T18:17:30;15.80;99.90
26982;DHT22;14533;50.848;4.380;2022-09-30T18:19:56;15.80;99.90
26982;DHT22;14533;50.848;4.380;2022-09-30T18:22:22;15.80;99.90
26982;DHT22;14533;50.848;4.380;2022-09-30T18:24:47;15.80;99.90
26982;DHT22;14533;50.848;4.380;2022-09-30T18:27:31;15.80;99.90
26982;DHT22;14533;50.848;4.380;2022-09-30T18:30:03;15.60;99.90
26982;DHT22;14533;50.848;4.380;2022-09-30T18:32:30;15.50;99.90
26982;DHT22;14533;50.848;4.380;2022-09-30T18:35:14;15.60;99.90
26982;DHT22;14533;50.848;4.380;2022-09-30T18:37:49;15.60;99.90
26982;DHT22;14533;50.848;4.380;2022-09-30T18:40:17;15.50;99.90
26982;DHT22;14533;50.848;4.380;2022-09-30T18:42:44;15.50;99.90
26982;DHT22;14533;50.848;4.380;2022-09-30T18:45:14;15.40;99.90
26982;DHT22;14533;50.848;4.380;2022-09-30T18:47:45;15.40;99.90
26982;DHT22;14533;50.848;4.380;2022-09-30T18:50:12;15.30;99.90
26982;DHT22;14533;50.848;4.380;2022-09-30T18:52:39;15.30;99.90
26982;DHT22;14533;50.848;4.380;2022-09-30T18:55:06;15.40;99.90
26982;DHT22;14533;50.848;4.380;2022-09-30T18:57:33;15.40;99.90
26982;DHT22;14533;50.848;4.380;2022-09-30T18:59:59;15.40;99.90
26982;DHT22;14533;50.848;4.380;2022-09-30T19:02:26;15.40;99.90
26982;DHT22;14533;50.848;4.380;2022-09-30T19:04:52;15.40;99.90
26982;DHT22;14533;50.848;4.380;2022-09-30T19:07:21;15.40;99.90
26982;DHT22;14533;50.848;4.380;2022-09-30T19:09:48;15.20;99.90